Lost Creek, Pennsylvania
Current Conditions -  °F | °C
As of 2:55 PM on Saturday 25 Oct 2014 (Local Time) from KHZL Reporting Station
Scattered Clouds Scattered Clouds  
Wind Chill: 63°   Ceiling: Unl
Heat Index: 63°   Visibility: 10mi
Dew Point: 41°   Wind: 8mph
Humidity: 45%   Direction: 250°WSW
Pressure: 29.76"   Gusts: NA
Location:  40.81°N, 76.25°W
Report Text: KHZL 251855Z AUTO 25007KT 220V280 10SM SCT045 17/05 A2976 RMK AO2
Loading
Personal Weather Stations






























Interactive Weather Map
Tropical Storm Tracking
New forecast layout! Learn more

10-Day Weather Forecast

Advertisements
Track Severe Weather on mobile